sensor_id;sensor_type;location;lat;lon;timestamp;pressure;altitude;pressure_sealevel;temperature;humidity
21520;BME280;10921;53.614;9.882;2022-12-18T00:01:04;102736.44;;;-4.32;78.41
21520;BME280;10921;53.614;9.882;2022-12-18T00:03:33;102699.09;;;-4.61;78.23
21520;BME280;10921;53.614;9.882;2022-12-18T00:06:00;102745.13;;;-4.42;78.18
21520;BME280;10921;53.614;9.882;2022-12-18T00:08:27;102754.69;;;-4.45;77.95
21520;BME280;10921;53.614;9.882;2022-12-18T00:10:54;102727.75;;;-4.64;77.76
21520;BME280;10921;53.614;9.882;2022-12-18T00:13:25;102727.75;;;-4.61;78.14
21520;BME280;10921;53.614;9.882;2022-12-18T00:15:53;102734.72;;;-4.63;78.18
21520;BME280;10921;53.614;9.882;2022-12-18T00:18:21;102730.34;;;-4.66;78.29
21520;BME280;10921;53.614;9.882;2022-12-18T00:20:48;102741.66;;;-4.64;78.19
21520;BME280;10921;53.614;9.882;2022-12-18T00:23:14;102748.56;;;-4.70;77.96
21520;BME280;10921;53.614;9.882;2022-12-18T00:25:41;102749.44;;;-4.80;78.09
21520;BME280;10921;53.614;9.882;2022-12-18T00:28:07;102770.28;;;-4.70;78.02
21520;BME280;10921;53.614;9.882;2022-12-18T00:30:34;102756.38;;;-4.87;77.95
21520;BME280;10921;53.614;9.882;2022-12-18T00:33:00;102776.38;;;-4.77;77.76
21520;BME280;10921;53.614;9.882;2022-12-18T00:35:26;102760.72;;;-4.84;77.98
21520;BME280;10921;53.614;9.882;2022-12-18T00:37:53;102744.22;;;-4.94;78.08
21520;BME280;10921;53.614;9.882;2022-12-18T00:40:19;102762.44;;;-4.85;77.90
21520;BME280;10921;53.614;9.882;2022-12-18T00:42:46;102760.72;;;-4.86;78.38
21520;BME280;10921;53.614;9.882;2022-12-18T00:45:29;102757.22;;;-4.88;78.33
21520;BME280;10921;53.614;9.882;2022-12-18T00:47:57;102759.00;;;-4.90;78.53
21520;BME280;10921;53.614;9.882;2022-12-18T00:50:24;102769.41;;;-4.90;78.44
21520;BME280;10921;53.614;9.882;2022-12-18T00:52:51;102757.25;;;-4.91;78.32
21520;BME280;10921;53.614;9.882;2022-12-18T00:55:18;102755.47;;;-5.03;78.29
21520;BME280;10921;53.614;9.882;2022-12-18T00:57:45;102747.66;;;-5.09;78.37
21520;BME280;10921;53.614;9.882;2022-12-18T01:00:13;102773.72;;;-4.98;78.20
21520;BME280;10921;53.614;9.882;2022-12-18T01:02:40;102757.16;;;-5.18;78.05
21520;BME280;10921;53.614;9.882;2022-12-18T01:05:09;102776.28;;;-5.07;77.66
21520;BME280;10921;53.614;9.882;2022-12-18T01:07:36;102781.47;;;-5.12;77.58
21520;BME280;10921;53.614;9.882;2022-12-18T01:10:03;102778.84;;;-5.16;77.34
21520;BME280;10921;53.614;9.882;2022-12-18T01:12:30;102758.91;;;-5.22;77.46
21520;BME280;10921;53.614;9.882;2022-12-18T01:14:57;102725.81;;;-5.47;77.71
21520;BME280;10921;53.614;9.882;2022-12-18T01:17:23;102745.81;;;-5.34;78.07
21520;BME280;10921;53.614;9.882;2022-12-18T01:19:50;102768.47;;;-5.19;78.29
21520;BME280;10921;53.614;9.882;2022-12-18T01:22:16;102767.56;;;-5.18;78.64
21520;BME280;10921;53.614;9.882;2022-12-18T01:24:43;102763.25;;;-5.22;78.65
21520;BME280;10921;53.614;9.882;2022-12-18T01:27:09;102754.56;;;-5.24;79.00
21520;BME280;10921;53.614;9.882;2022-12-18T01:29:36;102771.06;;;-5.15;78.88
21520;BME280;10921;53.614;9.882;2022-12-18T01:32:02;102760.63;;;-5.16;78.43
21520;BME280;10921;53.614;9.882;2022-12-18T01:34:29;102763.25;;;-5.16;78.83
21520;BME280;10921;53.614;9.882;2022-12-18T01:36:55;102774.50;;;-5.17;78.46
21520;BME280;10921;53.614;9.882;2022-12-18T01:39:22;102778.00;;;-5.21;78.87
21520;BME280;10921;53.614;9.882;2022-12-18T01:41:48;102770.19;;;-5.21;79.05
21520;BME280;10921;53.614;9.882;2022-12-18T01:47:37;102782.34;;;-5.13;79.51
21520;BME280;10921;53.614;9.882;2022-12-18T01:50:16;102786.66;;;-5.15;79.07
21520;BME280;10921;53.614;9.882;2022-12-18T01:52:47;102794.50;;;-5.13;78.72
21520;BME280;10921;53.614;9.882;2022-12-18T01:55:14;102797.97;;;-5.10;79.11
21520;BME280;10921;53.614;9.882;2022-12-18T01:57:42;102762.28;;;-5.40;78.50
21520;BME280;10921;53.614;9.882;2022-12-18T02:00:15;102800.53;;;-5.19;79.00
21520;BME280;10921;53.614;9.882;2022-12-18T02:02:44;102800.53;;;-5.23;78.52
21520;BME280;10921;53.614;9.882;2022-12-18T02:05:13;102797.91;;;-5.26;78.37
21520;BME280;10921;53.614;9.882;2022-12-18T02:10:44;102794.41;;;-5.30;79.05
21520;BME280;10921;53.614;9.882;2022-12-18T02:18:58;102804.81;;;-5.39;78.23
21520;BME280;10921;53.614;9.882;2022-12-18T02:21:57;102810.88;;;-5.34;78.96
21520;BME280;10921;53.614;9.882;2022-12-18T02:27:19;102809.16;;;-5.38;78.71
21520;BME280;10921;53.614;9.882;2022-12-18T02:29:53;102815.22;;;-5.36;78.35
21520;BME280;10921;53.614;9.882;2022-12-18T02:32:26;102819.56;;;-5.38;78.50
21520;BME280;10921;53.614;9.882;2022-12-18T02:34:54;102817.81;;;-5.35;78.31
21520;BME280;10921;53.614;9.882;2022-12-18T02:37:23;102809.94;;;-5.47;77.54
21520;BME280;10921;53.614;9.882;2022-12-18T02:39:53;102806.47;;;-5.52;77.24
21520;BME280;10921;53.614;9.882;2022-12-18T02:42:21;102808.19;;;-5.54;77.81
21520;BME280;10921;53.614;9.882;2022-12-18T02:44:50;102809.03;;;-5.59;77.09
21520;BME280;10921;53.614;9.882;2022-12-18T02:47:20;102817.66;;;-5.65;77.56
21520;BME280;10921;53.614;9.882;2022-12-18T02:53:12;102819.38;;;-5.64;78.01
21520;BME280;10921;53.614;9.882;2022-12-18T02:58:26;102824.59;;;-5.69;77.46
21520;BME280;10921;53.614;9.882;2022-12-18T03:01:13;102801.13;;;-5.76;78.23
21520;BME280;10921;53.614;9.882;2022-12-18T03:03:47;102797.66;;;-5.77;77.45
21520;BME280;10921;53.614;9.882;2022-12-18T03:06:24;102817.63;;;-5.73;77.53
21520;BME280;10921;53.614;9.882;2022-12-18T03:08:58;102832.34;;;-5.73;77.45
21520;BME280;10921;53.614;9.882;2022-12-18T03:11:28;102801.91;;;-5.91;77.35
21520;BME280;10921;53.614;9.882;2022-12-18T03:14:15;102824.50;;;-5.76;76.73
21520;BME280;10921;53.614;9.882;2022-12-18T03:16:43;102820.16;;;-5.85;76.62
21520;BME280;10921;53.614;9.882;2022-12-18T03:19:16;102792.31;;;-6.03;76.90
21520;BME280;10921;53.614;9.882;2022-12-18T03:21:48;102820.16;;;-5.85;77.40
21520;BME280;10921;53.614;9.882;2022-12-18T03:24:17;102830.50;;;-5.88;77.12
21520;BME280;10921;53.614;9.882;2022-12-18T03:26:47;102838.31;;;-5.88;77.24
21520;BME280;10921;53.614;9.882;2022-12-18T03:29:20;102781.84;;;-6.15;77.60
21520;BME280;10921;53.614;9.882;2022-12-18T03:31:53;102827.06;;;-5.88;77.50
21520;BME280;10921;53.614;9.882;2022-12-18T03:34:28;102827.06;;;-5.88;77.47
21520;BME280;10921;53.614;9.882;2022-12-18T03:36:55;102807.06;;;-6.01;77.23
21520;BME280;10921;53.614;9.882;2022-12-18T03:39:22;102821.81;;;-5.94;77.13
21520;BME280;10921;53.614;9.882;2022-12-18T03:50:18;102798.31;;;-6.08;78.33
21520;BME280;10921;53.614;9.882;2022-12-18T03:55:20;102816.63;;;-5.97;77.77
21520;BME280;10921;53.614;9.882;2022-12-18T03:57:48;102830.53;;;-5.86;77.90
21520;BME280;10921;53.614;9.882;2022-12-18T04:00:17;102825.31;;;-5.91;77.46
21520;BME280;10921;53.614;9.882;2022-12-18T04:02:51;102828.81;;;-5.89;77.73
21520;BME280;10921;53.614;9.882;2022-12-18T04:05:19;102818.34;;;-5.95;77.70
21520;BME280;10921;53.614;9.882;2022-12-18T04:07:47;102821.84;;;-5.91;78.14
21520;BME280;10921;53.614;9.882;2022-12-18T04:10:16;102821.00;;;-5.90;78.19
21520;BME280;10921;53.614;9.882;2022-12-18T04:12:43;102787.91;;;-6.13;77.73
21520;BME280;10921;53.614;9.882;2022-12-18T04:15:11;102817.50;;;-5.92;78.13
21520;BME280;10921;53.614;9.882;2022-12-18T04:17:39;102810.56;;;-5.96;77.93
21520;BME280;10921;53.614;9.882;2022-12-18T04:20:06;102784.50;;;-6.06;77.55
21520;BME280;10921;53.614;9.882;2022-12-18T04:22:33;102807.94;;;-5.95;78.26
21520;BME280;10921;53.614;9.882;2022-12-18T04:24:59;102825.34;;;-5.85;78.17
21520;BME280;10921;53.614;9.882;2022-12-18T04:27:26;102819.22;;;-5.93;78.17
21520;BME280;10921;53.614;9.882;2022-12-18T04:29:52;102831.41;;;-5.84;78.17
21520;BME280;10921;53.614;9.882;2022-12-18T04:32:19;102802.75;;;-5.99;77.54
21520;BME280;10921;53.614;9.882;2022-12-18T04:34:45;102824.47;;;-5.84;77.53
21520;BME280;10921;53.614;9.882;2022-12-18T04:37:12;102818.41;;;-5.86;77.74
21520;BME280;10921;53.614;9.882;2022-12-18T04:39:38;102798.41;;;-5.99;77.41
21520;BME280;10921;53.614;9.882;2022-12-18T04:42:05;102813.16;;;-5.96;77.25
21520;BME280;10921;53.614;9.882;2022-12-18T04:44:32;102813.16;;;-5.96;76.91
21520;BME280;10921;53.614;9.882;2022-12-18T04:46:58;102823.53;;;-5.99;76.66
21520;BME280;10921;53.614;9.882;2022-12-18T04:49:24;102813.06;;;-6.07;76.39
21520;BME280;10921;53.614;9.882;2022-12-18T04:51:52;102806.09;;;-6.16;76.76
21520;BME280;10921;53.614;9.882;2022-12-18T04:54:19;102796.47;;;-6.27;76.95
21520;BME280;10921;53.614;9.882;2022-12-18T04:56:46;102826.91;;;-6.13;76.39
21520;BME280;10921;53.614;9.882;2022-12-18T04:59:12;102793.81;;;-6.32;76.72
21520;BME280;10921;53.614;9.882;2022-12-18T05:01:39;102782.47;;;-6.43;76.41
21520;BME280;10921;53.614;9.882;2022-12-18T05:04:06;102834.59;;;-6.22;76.86
21520;BME280;10921;53.614;9.882;2022-12-18T05:06:33;102833.72;;;-6.24;76.38
21520;BME280;10921;53.614;9.882;2022-12-18T05:08:59;102838.03;;;-6.24;76.74
21520;BME280;10921;53.614;9.882;2022-12-18T05:11:25;102827.56;;;-6.35;77.32
21520;BME280;10921;53.614;9.882;2022-12-18T05:13:52;102858.81;;;-6.26;76.63
21520;BME280;10921;53.614;9.882;2022-12-18T05:16:18;102835.34;;;-6.36;76.96
21520;BME280;10921;53.614;9.882;2022-12-18T05:18:45;102865.75;;;-6.26;76.57
21520;BME280;10921;53.614;9.882;2022-12-18T05:21:11;102837.03;;;-6.43;76.95
21520;BME280;10921;53.614;9.882;2022-12-18T05:23:38;102843.13;;;-6.38;76.87
21520;BME280;10921;53.614;9.882;2022-12-18T05:26:06;102855.34;;;-6.29;76.83
21520;BME280;10921;53.614;9.882;2022-12-18T05:28:34;102837.06;;;-6.37;76.98
21520;BME280;10921;53.614;9.882;2022-12-18T05:31:02;102836.19;;;-6.42;77.30
21520;BME280;10921;53.614;9.882;2022-12-18T05:33:32;102849.31;;;-6.27;77.94
21520;BME280;10921;53.614;9.882;2022-12-18T05:36:04;102858.00;;;-6.22;77.58
21520;BME280;10921;53.614;9.882;2022-12-18T05:38:32;102869.28;;;-6.20;77.78
21520;BME280;10921;53.614;9.882;2022-12-18T05:40:59;102857.09;;;-6.25;77.87
21520;BME280;10921;53.614;9.882;2022-12-18T05:43:26;102873.66;;;-6.14;77.88
21520;BME280;10921;53.614;9.882;2022-12-18T05:45:53;102870.22;;;-6.12;77.74
21520;BME280;10921;53.614;9.882;2022-12-18T05:48:23;102869.38;;;-6.08;78.00
21520;BME280;10921;53.614;9.882;2022-12-18T05:50:50;102862.44;;;-6.07;78.36
21520;BME280;10921;53.614;9.882;2022-12-18T05:53:19;102872.06;;;-6.00;78.89
21520;BME280;10921;53.614;9.882;2022-12-18T05:55:46;102873.81;;;-5.96;78.78
21520;BME280;10921;53.614;9.882;2022-12-18T05:58:14;102877.31;;;-5.91;79.14
21520;BME280;10921;53.614;9.882;2022-12-18T06:00:42;102868.66;;;-5.85;79.22
21520;BME280;10921;53.614;9.882;2022-12-18T06:03:10;102863.47;;;-5.85;78.73
21520;BME280;10921;53.614;9.882;2022-12-18T06:05:43;102866.97;;;-5.82;78.83
21520;BME280;10921;53.614;9.882;2022-12-18T06:08:11;102874.81;;;-5.76;78.62
21520;BME280;10921;53.614;9.882;2022-12-18T06:10:39;102873.97;;;-5.73;79.23
21520;BME280;10921;53.614;9.882;2022-12-18T06:13:06;102872.16;;;-5.79;78.61
21520;BME280;10921;53.614;9.882;2022-12-18T06:15:36;102837.41;;;-5.94;78.94
21520;BME280;10921;53.614;9.882;2022-12-18T06:18:02;102870.50;;;-5.72;78.82
21520;BME280;10921;53.614;9.882;2022-12-18T06:20:29;102860.03;;;-5.80;78.87
21520;BME280;10921;53.614;9.882;2022-12-18T06:22:59;102872.22;;;-5.74;78.65
21520;BME280;10921;53.614;9.882;2022-12-18T06:25:25;102835.72;;;-5.89;78.54
21520;BME280;10921;53.614;9.882;2022-12-18T06:27:52;102880.06;;;-5.70;78.01
21520;BME280;10921;53.614;9.882;2022-12-18T06:30:19;102876.53;;;-5.75;77.88
21520;BME280;10921;53.614;9.882;2022-12-18T06:32:47;102878.28;;;-5.74;78.10
21520;BME280;10921;53.614;9.882;2022-12-18T06:35:21;102857.38;;;-5.92;78.13
21520;BME280;10921;53.614;9.882;2022-12-18T06:37:48;102882.66;;;-5.70;78.38
21520;BME280;10921;53.614;9.882;2022-12-18T06:40:14;102883.53;;;-5.69;78.02
21520;BME280;10921;53.614;9.882;2022-12-18T06:42:41;102876.56;;;-5.72;78.42
21520;BME280;10921;53.614;9.882;2022-12-18T06:45:07;102879.19;;;-5.69;78.00
21520;BME280;10921;53.614;9.882;2022-12-18T06:47:34;102878.31;;;-5.72;78.13
21520;BME280;10921;53.614;9.882;2022-12-18T06:50:00;102888.75;;;-5.64;78.16
21520;BME280;10921;53.614;9.882;2022-12-18T06:52:27;102890.50;;;-5.62;78.70
21520;BME280;10921;53.614;9.882;2022-12-18T06:54:53;102897.47;;;-5.59;78.59
21520;BME280;10921;53.614;9.882;2022-12-18T06:57:20;102897.47;;;-5.58;78.51
21520;BME280;10921;53.614;9.882;2022-12-18T06:59:47;102890.53;;;-5.57;78.31
21520;BME280;10921;53.614;9.882;2022-12-18T07:02:13;102880.97;;;-5.61;78.75
21520;BME280;10921;53.614;9.882;2022-12-18T07:04:40;102897.50;;;-5.55;78.79
21520;BME280;10921;53.614;9.882;2022-12-18T07:07:07;102892.31;;;-5.53;78.70
21520;BME280;10921;53.614;9.882;2022-12-18T07:09:33;102905.34;;;-5.52;78.47
21520;BME280;10921;53.614;9.882;2022-12-18T07:12:00;102906.19;;;-5.51;78.91
21520;BME280;10921;53.614;9.882;2022-12-18T07:14:26;102886.19;;;-5.60;78.68
21520;BME280;10921;53.614;9.882;2022-12-18T07:16:53;102898.38;;;-5.53;78.71
21520;BME280;10921;53.614;9.882;2022-12-18T07:19:20;102887.97;;;-5.54;78.79
21520;BME280;10921;53.614;9.882;2022-12-18T07:21:46;102910.56;;;-5.46;78.88
21520;BME280;10921;53.614;9.882;2022-12-18T07:24:13;102908.81;;;-5.47;78.70
21520;BME280;10921;53.614;9.882;2022-12-18T07:26:39;102905.31;;;-5.55;78.39
21520;BME280;10921;53.614;9.882;2022-12-18T07:29:06;102918.38;;;-5.44;78.79
21520;BME280;10921;53.614;9.882;2022-12-18T07:31:32;102914.03;;;-5.44;78.38
21520;BME280;10921;53.614;9.882;2022-12-18T07:33:59;102919.25;;;-5.42;78.08
21520;BME280;10921;53.614;9.882;2022-12-18T07:36:25;102900.09;;;-5.55;77.88
21520;BME280;10921;53.614;9.882;2022-12-18T07:38:52;102922.75;;;-5.42;78.04
21520;BME280;10921;53.614;9.882;2022-12-18T07:41:19;102911.41;;;-5.48;78.26
21520;BME280;10921;53.614;9.882;2022-12-18T07:43:46;102930.53;;;-5.43;78.13
21520;BME280;10921;53.614;9.882;2022-12-18T07:46:14;102911.41;;;-5.51;78.36
21520;BME280;10921;53.614;9.882;2022-12-18T07:48:42;102925.34;;;-5.42;78.35
21520;BME280;10921;53.614;9.882;2022-12-18T07:51:11;102937.53;;;-5.38;78.61
21520;BME280;10921;53.614;9.882;2022-12-18T07:53:39;102933.19;;;-5.36;78.78
21520;BME280;10921;53.614;9.882;2022-12-18T07:56:08;102907.06;;;-5.49;79.07
21520;BME280;10921;53.614;9.882;2022-12-18T07:58:54;102928.00;;;-5.33;78.91
21520;BME280;10921;53.614;9.882;2022-12-18T08:01:21;102908.06;;;-5.35;78.91
21520;BME280;10921;53.614;9.882;2022-12-18T08:03:47;102928.06;;;-5.25;78.97
21520;BME280;10921;53.614;9.882;2022-12-18T08:06:15;102926.34;;;-5.21;78.79
21520;BME280;10921;53.614;9.882;2022-12-18T08:08:42;102929.81;;;-5.16;79.07
21520;BME280;10921;53.614;9.882;2022-12-18T08:11:09;102931.59;;;-5.14;78.73
21520;BME280;10921;53.614;9.882;2022-12-18T08:13:35;102929.81;;;-5.16;78.51
21520;BME280;10921;53.614;9.882;2022-12-18T08:16:05;102919.44;;;-5.12;78.96
21520;BME280;10921;53.614;9.882;2022-12-18T08:18:33;102922.06;;;-5.09;78.76
21520;BME280;10921;53.614;9.882;2022-12-18T08:21:10;102918.63;;;-5.06;79.84
21520;BME280;10921;53.614;9.882;2022-12-18T08:23:37;102918.63;;;-5.03;78.92
21520;BME280;10921;53.614;9.882;2022-12-18T08:26:17;102917.78;;;-4.99;79.55
21520;BME280;10921;53.614;9.882;2022-12-18T08:28:44;102910.00;;;-4.94;79.10
21520;BME280;10921;53.614;9.882;2022-12-18T08:31:11;102913.50;;;-4.91;79.49
21520;BME280;10921;53.614;9.882;2022-12-18T08:33:38;102907.41;;;-4.85;79.95
21520;BME280;10921;53.614;9.882;2022-12-18T08:36:08;102916.13;;;-4.79;80.17
21520;BME280;10921;53.614;9.882;2022-12-18T08:38:34;102896.16;;;-4.81;80.15
21520;BME280;10921;53.614;9.882;2022-12-18T08:41:10;102913.56;;;-4.67;80.60
21520;BME280;10921;53.614;9.882;2022-12-18T08:43:37;102917.09;;;-4.60;80.41
21520;BME280;10921;53.614;9.882;2022-12-18T08:46:25;102908.38;;;-4.57;80.60
21520;BME280;10921;53.614;9.882;2022-12-18T08:48:54;102911.91;;;-4.48;80.60
21520;BME280;10921;53.614;9.882;2022-12-18T08:51:22;102926.69;;;-4.36;80.65
21520;BME280;10921;53.614;9.882;2022-12-18T08:53:49;102925.00;;;-4.28;81.10
21520;BME280;10921;53.614;9.882;2022-12-18T08:56:15;102911.06;;;-4.27;81.00
21520;BME280;10921;53.614;9.882;2022-12-18T08:58:42;102914.56;;;-4.11;80.81
21520;BME280;10921;53.614;9.882;2022-12-18T09:01:10;102917.22;;;-4.04;81.03
21520;BME280;10921;53.614;9.882;2022-12-18T09:03:37;102915.47;;;-3.96;80.96
21520;BME280;10921;53.614;9.882;2022-12-18T09:06:05;102923.31;;;-3.88;80.58
21520;BME280;10921;53.614;9.882;2022-12-18T09:08:35;102923.28;;;-3.79;80.72
21520;BME280;10921;53.614;9.882;2022-12-18T09:11:03;102926.78;;;-3.72;80.50
21520;BME280;10921;53.614;9.882;2022-12-18T09:13:30;102916.31;;;-3.66;80.81
21520;BME280;10921;53.614;9.882;2022-12-18T09:15:56;102911.13;;;-3.57;80.58
21520;BME280;10921;53.614;9.882;2022-12-18T09:18:23;102918.06;;;-3.45;80.63
21520;BME280;10921;53.614;9.882;2022-12-18T09:20:50;102911.94;;;-3.35;80.70
21520;BME280;10921;53.614;9.882;2022-12-18T09:23:19;102907.59;;;-3.29;80.88
21520;BME280;10921;53.614;9.882;2022-12-18T09:25:46;102880.63;;;-3.35;80.55
21520;BME280;10921;53.614;9.882;2022-12-18T09:28:13;102893.66;;;-3.23;80.58
21520;BME280;10921;53.614;9.882;2022-12-18T09:30:43;102919.75;;;-3.08;80.29
21520;BME280;10921;53.614;9.882;2022-12-18T09:33:10;102917.97;;;-2.98;80.49
21520;BME280;10921;53.614;9.882;2022-12-18T09:35:38;102923.13;;;-2.89;80.24
21520;BME280;10921;53.614;9.882;2022-12-18T09:38:05;102911.81;;;-2.90;80.21
21520;BME280;10921;53.614;9.882;2022-12-18T09:40:36;102906.56;;;-2.79;80.24
21520;BME280;10921;53.614;9.882;2022-12-18T09:43:06;102919.59;;;-2.70;79.73
21520;BME280;10921;53.614;9.882;2022-12-18T09:45:51;102923.94;;;-2.61;80.69
21520;BME280;10921;53.614;9.882;2022-12-18T09:48:27;102916.97;;;-2.61;80.54
21520;BME280;10921;53.614;9.882;2022-12-18T09:50:58;102916.88;;;-2.50;80.46
21520;BME280;10921;53.614;9.882;2022-12-18T09:53:30;102921.19;;;-2.38;80.42
21520;BME280;10921;53.614;9.882;2022-12-18T09:56:00;102917.66;;;-2.30;80.43
21520;BME280;10921;53.614;9.882;2022-12-18T09:58:43;102918.47;;;-2.19;80.48
21520;BME280;10921;53.614;9.882;2022-12-18T10:01:18;102919.25;;;-2.07;80.69
21520;BME280;10921;53.614;9.882;2022-12-18T10:03:47;102899.22;;;-2.12;80.20
21520;BME280;10921;53.614;9.882;2022-12-18T10:06:36;102924.25;;;-1.77;81.06
21520;BME280;10921;53.614;9.882;2022-12-18T10:09:18;102922.41;;;-1.66;80.82
21520;BME280;10921;53.614;9.882;2022-12-18T10:14:44;102922.06;;;-1.26;80.74
21520;BME280;10921;53.614;9.882;2022-12-18T10:20:00;102926.00;;;-0.90;79.74
21520;BME280;10921;53.614;9.882;2022-12-18T10:22:57;102929.25;;;-0.68;79.20
21520;BME280;10921;53.614;9.882;2022-12-18T10:25:31;102934.25;;;-0.49;78.25
21520;BME280;10921;53.614;9.882;2022-12-18T10:28:13;102930.44;;;-0.26;78.55
21520;BME280;10921;53.614;9.882;2022-12-18T10:30:41;102938.09;;;-0.11;76.93
21520;BME280;10921;53.614;9.882;2022-12-18T10:33:17;102939.59;;;0.05;77.56
21520;BME280;10921;53.614;9.882;2022-12-18T10:35:45;102931.53;;;0.17;76.42
21520;BME280;10921;53.614;9.882;2022-12-18T10:43:24;102928.97;;;0.65;76.19
21520;BME280;10921;53.614;9.882;2022-12-18T10:48:30;102913.22;;;0.63;74.87
21520;BME280;10921;53.614;9.882;2022-12-18T10:50:56;102928.59;;;0.85;74.70
21520;BME280;10921;53.614;9.882;2022-12-18T10:53:41;102908.25;;;0.94;74.15
21520;BME280;10921;53.614;9.882;2022-12-18T10:56:09;102904.34;;;1.15;74.38
21520;BME280;10921;53.614;9.882;2022-12-18T10:58:37;102906.66;;;1.30;72.97
21520;BME280;10921;53.614;9.882;2022-12-18T11:01:16;102892.41;;;1.40;73.87
21520;BME280;10921;53.614;9.882;2022-12-18T11:03:45;102884.28;;;1.53;71.57
21520;BME280;10921;53.614;9.882;2022-12-18T11:06:14;102904.66;;;1.82;70.73
21520;BME280;10921;53.614;9.882;2022-12-18T11:08:44;102900.84;;;1.95;69.70
21520;BME280;10921;53.614;9.882;2022-12-18T11:11:21;102892.59;;;2.08;68.79
21520;BME280;10921;53.614;9.882;2022-12-18T11:14:03;102897.50;;;2.24;68.97
21520;BME280;10921;53.614;9.882;2022-12-18T11:16:36;102897.22;;;2.34;68.14
21520;BME280;10921;53.614;9.882;2022-12-18T11:19:36;102904.03;;;2.43;67.21
21520;BME280;10921;53.614;9.882;2022-12-18T11:30:49;102884.09;;;2.33;65.36
21520;BME280;10921;53.614;9.882;2022-12-18T11:33:19;102890.38;;;2.29;65.12
21520;BME280;10921;53.614;9.882;2022-12-18T11:35:52;102896.75;;;2.19;63.02
21520;BME280;10921;53.614;9.882;2022-12-18T11:38:26;102886.41;;;2.11;63.03
21520;BME280;10921;53.614;9.882;2022-12-18T11:41:00;102893.53;;;2.06;62.17
21520;BME280;10921;53.614;9.882;2022-12-18T11:43:35;102884.13;;;1.97;63.04
21520;BME280;10921;53.614;9.882;2022-12-18T11:46:17;102883.13;;;2.01;64.15
21520;BME280;10921;53.614;9.882;2022-12-18T11:49:15;102882.91;;;2.10;63.72
21520;BME280;10921;53.614;9.882;2022-12-18T11:51:55;102886.25;;;2.17;62.60
21520;BME280;10921;53.614;9.882;2022-12-18T11:54:25;102858.34;;;2.10;60.51
21520;BME280;10921;53.614;9.882;2022-12-18T11:57:32;102863.00;;;2.33;60.16
21520;BME280;10921;53.614;9.882;2022-12-18T12:00:12;102855.72;;;2.44;60.43
21520;BME280;10921;53.614;9.882;2022-12-18T12:14:03;102853.34;;;2.33;60.01
21520;BME280;10921;53.614;9.882;2022-12-18T12:16:45;102858.97;;;2.20;59.01
21520;BME280;10921;53.614;9.882;2022-12-18T12:24:56;102801.28;;;1.75;60.48
21520;BME280;10921;53.614;9.882;2022-12-18T12:33:01;102800.72;;;1.62;61.69
21520;BME280;10921;53.614;9.882;2022-12-18T12:38:25;102759.41;;;1.29;61.69
21520;BME280;10921;53.614;9.882;2022-12-18T12:41:01;102784.41;;;1.47;62.07
21520;BME280;10921;53.614;9.882;2022-12-18T12:43:38;102776.47;;;1.50;61.95
21520;BME280;10921;53.614;9.882;2022-12-18T12:46:17;102771.84;;;1.59;63.05
21520;BME280;10921;53.614;9.882;2022-12-18T12:51:34;102773.59;;;1.94;62.94
21520;BME280;10921;53.614;9.882;2022-12-18T12:54:03;102761.72;;;2.12;60.89
21520;BME280;10921;53.614;9.882;2022-12-18T13:00:11;102767.78;;;2.46;61.96
21520;BME280;10921;53.614;9.882;2022-12-18T13:05:17;102772.75;;;2.57;61.14
21520;BME280;10921;53.614;9.882;2022-12-18T13:07:56;102758.81;;;2.54;60.94
21520;BME280;10921;53.614;9.882;2022-12-18T13:10:42;102765.53;;;2.64;60.74
21520;BME280;10921;53.614;9.882;2022-12-18T13:13:10;102763.63;;;2.69;59.79
21520;BME280;10921;53.614;9.882;2022-12-18T13:20:39;102763.22;;;2.82;57.12
21520;BME280;10921;53.614;9.882;2022-12-18T13:31:09;102755.06;;;2.61;57.29
21520;BME280;10921;53.614;9.882;2022-12-18T13:33:42;102727.78;;;2.32;57.56
21520;BME280;10921;53.614;9.882;2022-12-18T13:36:31;102755.06;;;2.30;56.89
21520;BME280;10921;53.614;9.882;2022-12-18T13:44:34;102757.22;;;1.83;58.31
21520;BME280;10921;53.614;9.882;2022-12-18T13:47:32;102760.06;;;1.74;59.74
21520;BME280;10921;53.614;9.882;2022-12-18T13:50:01;102768.38;;;1.57;58.42
21520;BME280;10921;53.614;9.882;2022-12-18T13:52:38;102770.44;;;1.45;58.98
21520;BME280;10921;53.614;9.882;2022-12-18T13:55:14;102767.13;;;1.36;59.59
21520;BME280;10921;53.614;9.882;2022-12-18T13:57:42;102773.53;;;1.23;58.96
21520;BME280;10921;53.614;9.882;2022-12-18T14:00:24;102762.38;;;1.14;59.63
21520;BME280;10921;53.614;9.882;2022-12-18T14:02:51;102752.16;;;1.01;60.13
21520;BME280;10921;53.614;9.882;2022-12-18T14:05:32;102740.91;;;0.93;60.59
21520;BME280;10921;53.614;9.882;2022-12-18T14:08:10;102736.78;;;0.83;61.07
21520;BME280;10921;53.614;9.882;2022-12-18T14:10:46;102741.50;;;0.66;61.02
21520;BME280;10921;53.614;9.882;2022-12-18T14:13:21;102751.31;;;0.59;61.19
21520;BME280;10921;53.614;9.882;2022-12-18T14:15:50;102754.00;;;0.55;60.89
21520;BME280;10921;53.614;9.882;2022-12-18T14:21:00;102737.63;;;0.42;61.86
21520;BME280;10921;53.614;9.882;2022-12-18T14:23:39;102738.63;;;0.37;62.24
21520;BME280;10921;53.614;9.882;2022-12-18T14:26:25;102700.63;;;0.11;62.21
21520;BME280;10921;53.614;9.882;2022-12-18T14:28:59;102701.59;;;0.04;62.36
21520;BME280;10921;53.614;9.882;2022-12-18T14:31:29;102703.53;;;-0.04;62.58
21520;BME280;10921;53.614;9.882;2022-12-18T14:33:56;102733.06;;;0.07;62.87
21520;BME280;10921;53.614;9.882;2022-12-18T14:36:25;102745.47;;;-0.01;62.55
21520;BME280;10921;53.614;9.882;2022-12-18T14:38:54;102744.69;;;-0.08;63.16
21520;BME280;10921;53.614;9.882;2022-12-18T14:41:21;102746.56;;;-0.14;63.46
21520;BME280;10921;53.614;9.882;2022-12-18T14:43:51;102718.91;;;-0.32;63.35
21520;BME280;10921;53.614;9.882;2022-12-18T14:46:38;102740.63;;;-0.24;64.05
21520;BME280;10921;53.614;9.882;2022-12-18T14:49:34;102737.31;;;-0.35;64.14
21520;BME280;10921;53.614;9.882;2022-12-18T14:52:04;102722.69;;;-0.48;63.99
21520;BME280;10921;53.614;9.882;2022-12-18T14:54:34;102728.66;;;-0.42;64.25
21520;BME280;10921;53.614;9.882;2022-12-18T15:00:05;102704.41;;;-0.54;64.71
21520;BME280;10921;53.614;9.882;2022-12-18T15:02:34;102703.59;;;-0.58;64.79